Time,TemperatureF,DewpointF,PressureIn,WindDirection,WindDirectionDegrees,WindSpeedMPH,WindSpeedGustMPH,Humidity,HourlyPrecipIn,Conditions,Clouds,dailyrainin,SoftwareType,DateUTC
2013-12-01 00:01:00,36.9,0.0,30.06,SSE,167,0.0,0.0,0,0.00,CLR,,0.00,WeatherDisplay:10.37,2013-12-01 06:01:00,
2013-12-01 00:06:00,36.8,0.0,30.06,SSE,162,5.8,5.8,0,0.00,CLR,,0.00,WeatherDisplay:10.37,2013-12-01 06:06:00,
2013-12-01 00:11:00,36.6,0.0,30.06,SE,130,6.9,6.9,0,0.00,CLR,,0.00,WeatherDisplay:10.37,2013-12-01 06:11:00,
2013-12-01 00:16:00,36.2,0.0,30.06,South,174,4.4,4.4,0,0.00,CLR,,0.00,WeatherDisplay:10.37,2013-12-01 06:16:00,
2013-12-01 00:21:00,36.3,0.0,30.06,South,181,6.9,6.9,0,0.00,CLR,,0.00,WeatherDisplay:10.37,2013-12-01 06:21:00,
2013-12-01 00:26:00,36.1,0.0,30.06,SSE,158,5.8,5.8,0,0.00,CLR,,0.00,WeatherDisplay:10.37,2013-12-01 06:26:00,
2013-12-01 00:31:00,36.3,0.0,30.05,South,182,4.6,4.6,0,0.00,CLR,,0.00,WeatherDisplay:10.37,2013-12-01 06:31:00,
2013-12-01 00:36:00,36.1,0.0,30.05,SSE,168,0.0,0.0,0,0.00,CLR,,0.00,WeatherDisplay:10.37,2013-12-01 06:36:00,
2013-12-01 00:41:00,35.8,0.0,30.05,SSE,168,0.0,0.0,0,0.00,CLR,,0.00,WeatherDisplay:10.37,2013-12-01 06:41:00,
2013-12-01 00:46:00,35.6,0.0,30.05,SSE,168,0.0,0.0,0,0.00,CLR,,0.00,WeatherDisplay:10.37,2013-12-01 06:46:00,
2013-12-01 00:51:00,35.4,0.0,30.05,SSE,168,0.0,0.0,0,0.00,CLR,,0.00,WeatherDisplay:10.37,2013-12-01 06:51:00,
2013-12-01 00:56:00,35.3,0.0,30.05,SSE,168,0.0,0.0,0,0.00,CLR,,0.00,WeatherDisplay:10.37,2013-12-01 06:56:00,
2013-12-01 01:01:00,35.5,0.0,30.05,SSE,168,0.0,0.0,0,0.00,CLR,,0.00,WeatherDisplay:10.37,2013-12-01 07:01:00,
2013-12-01 01:06:00,35.1,0.0,30.05,SSE,168,0.0,0.0,0,0.00,CLR,,0.00,WeatherDisplay:10.37,2013-12-01 07:06:00,
2013-12-01 01:11:00,35.3,0.0,30.05,SSW,202,3.5,3.5,0,0.00,CLR,,0.00,WeatherDisplay:10.37,2013-12-01 07:11:00,
2013-12-01 01:16:00,35.3,0.0,30.05,SSW,202,0.0,0.0,0,0.00,CLR,,0.00,WeatherDisplay:10.37,2013-12-01 07:16:00,
2013-12-01 01:21:00,35.4,0.0,30.05,SSE,157,0.0,0.0,0,0.00,CLR,,0.00,WeatherDisplay:10.37,2013-12-01 07:21:00,
2013-12-01 01:26:00,35.2,0.0,30.05,South,171,4.4,4.4,0,0.00,CLR,,0.00,WeatherDisplay:10.37,2013-12-01 07:26:00,
2013-12-01 01:31:00,35.4,0.0,30.05,East,88,0.0,0.0,0,0.00,CLR,,0.00,WeatherDisplay:10.37,2013-12-01 07:31:00,
2013-12-01 01:36:00,35.1,0.0,30.05,East,88,0.0,0.0,0,0.00,CLR,,0.00,WeatherDisplay:10.37,2013-12-01 07:36:00,
2013-12-01 01:41:00,35.3,0.0,30.05,East,88,0.0,0.0,0,0.00,CLR,,0.00,WeatherDisplay:10.37,2013-12-01 07:41:00,
2013-12-01 01:46:00,34.8,0.0,30.05,East,88,0.0,0.0,0,0.00,CLR,,0.00,WeatherDisplay:10.37,2013-12-01 07:46:00,
2013-12-01 01:51:00,34.9,0.0,30.05,East,88,0.0,0.0,0,0.00,CLR,,0.00,WeatherDisplay:10.37,2013-12-01 07:51:00,
2013-12-01 01:56:00,34.3,0.0,30.05,East,88,0.0,0.0,0,0.00,CLR,,0.00,WeatherDisplay:10.37,2013-12-01 07:56:00,
2013-12-01 02:01:00,34.6,0.0,30.05,East,88,0.0,0.0,0,0.00,CLR,,0.00,WeatherDisplay:10.37,2013-12-01 08:01:00,
2013-12-01 02:06:00,34.6,0.0,30.05,East,88,0.0,0.0,0,0.00,CLR,,0.00,WeatherDisplay:10.37,2013-12-01 08:06:00,
2013-12-01 02:11:00,34.4,0.0,30.05,East,88,0.0,0.0,0,0.00,CLR,,0.00,WeatherDisplay:10.37,2013-12-01 08:11:00,
2013-12-01 02:16:00,34.2,0.0,30.05,East,88,0.0,0.0,0,0.00,CLR,,0.00,WeatherDisplay:10.37,2013-12-01 08:16:00,
2013-12-01 02:21:00,34.0,0.0,30.04,East,88,0.0,0.0,0,0.00,CLR,,0.00,WeatherDisplay:10.37,2013-12-01 08:21:00,
2013-12-01 02:26:00,33.9,0.0,30.05,East,88,0.0,0.0,0,0.00,CLR,,0.00,WeatherDisplay:10.37,2013-12-01 08:26:00,
2013-12-01 02:31:00,33.4,0.0,30.05,East,88,0.0,0.0,0,0.00,CLR,,0.00,WeatherDisplay:10.37,2013-12-01 08:31:00,
2013-12-01 02:36:00,33.4,0.0,30.05,East,88,0.0,0.0,0,0.00,CLR,,0.00,WeatherDisplay:10.37,2013-12-01 08:36:00,
2013-12-01 02:41:00,33.1,0.0,30.04,East,88,0.0,0.0,0,0.00,CLR,,0.00,WeatherDisplay:10.37,2013-12-01 08:41:00,
2013-12-01 02:46:00,33.1,0.0,30.04,East,88,0.0,0.0,0,0.00,CLR,,0.00,WeatherDisplay:10.37,2013-12-01 08:46:00,
2013-12-01 02:51:00,32.9,0.0,30.04,East,88,0.0,0.0,0,0.00,CLR,,0.00,WeatherDisplay:10.37,2013-12-01 08:51:00,
2013-12-01 02:56:00,32.7,0.0,30.04,East,88,0.0,0.0,0,0.00,CLR,,0.00,WeatherDisplay:10.37,2013-12-01 08:56:00,
2013-12-01 03:01:00,32.6,0.0,30.04,East,88,0.0,0.0,0,0.00,CLR,,0.00,WeatherDisplay:10.37,2013-12-01 09:01:00,
2013-12-01 03:06:00,32.5,0.0,30.04,East,88,0.0,0.0,0,0.00,CLR,,0.00,WeatherDisplay:10.37,2013-12-01 09:06:00,
2013-12-01 03:11:00,32.2,0.0,30.04,East,88,0.0,0.0,0,0.00,CLR,,0.00,WeatherDisplay:10.37,2013-12-01 09:11:00,
2013-12-01 03:16:00,32.0,0.0,30.03,East,88,0.0,0.0,0,0.00,CLR,,0.00,WeatherDisplay:10.37,2013-12-01 09:16:00,
2013-12-01 03:21:00,32.1,0.0,30.04,East,88,0.0,0.0,0,0.00,CLR,,0.00,WeatherDisplay:10.37,2013-12-01 09:21:00,
2013-12-01 03:26:00,32.1,0.0,30.04,East,88,0.0,0.0,0,0.00,CLR,,0.00,WeatherDisplay:10.37,2013-12-01 09:26:00,
2013-12-01 03:31:00,32.0,0.0,30.03,East,88,0.0,0.0,0,0.00,CLR,,0.00,WeatherDisplay:10.37,2013-12-01 09:31:00,
2013-12-01 03:36:00,31.9,0.0,30.03,East,88,0.0,0.0,0,0.00,CLR,,0.00,WeatherDisplay:10.37,2013-12-01 09:36:00,
2013-12-01 03:41:00,31.7,0.0,30.03,East,88,0.0,0.0,0,0.00,CLR,,0.00,WeatherDisplay:10.37,2013-12-01 09:41:00,
2013-12-01 03:46:00,31.4,0.0,30.03,East,88,0.0,0.0,0,0.00,CLR,,0.00,WeatherDisplay:10.37,2013-12-01 09:46:00,
2013-12-01 03:51:00,31.2,0.0,30.03,East,88,0.0,0.0,0,0.00,CLR,,0.00,WeatherDisplay:10.37,2013-12-01 09:51:00,
2013-12-01 03:56:00,31.0,0.0,30.03,East,88,0.0,0.0,0,0.00,CLR,,0.00,WeatherDisplay:10.37,2013-12-01 09:56:00,
2013-12-01 04:01:00,30.7,0.0,30.03,East,88,0.0,0.0,0,0.00,CLR,,0.00,WeatherDisplay:10.37,2013-12-01 10:01:00,
2013-12-01 04:06:00,30.8,0.0,30.03,East,88,0.0,0.0,0,0.00,CLR,,0.00,WeatherDisplay:10.37,2013-12-01 10:06:00,
2013-12-01 04:11:00,30.8,0.0,30.03,East,88,0.0,0.0,0,0.00,CLR,,0.00,WeatherDisplay:10.37,2013-12-01 10:11:00,
2013-12-01 04:16:00,31.1,0.0,30.04,East,88,0.0,0.0,0,0.00,CLR,,0.00,WeatherDisplay:10.37,2013-12-01 10:16:00,
2013-12-01 04:21:00,31.1,0.0,30.04,East,88,0.0,0.0,0,0.00,CLR,,0.00,WeatherDisplay:10.37,2013-12-01 10:21:00,
2013-12-01 04:26:00,31.2,0.0,30.04,East,88,0.0,0.0,0,0.00,CLR,,0.00,WeatherDisplay:10.37,2013-12-01 10:26:00,
2013-12-01 04:31:00,31.3,0.0,30.04,SW,230,0.0,0.0,0,0.00,CLR,,0.00,WeatherDisplay:10.37,2013-12-01 10:31:00,
2013-12-01 04:36:00,31.2,0.0,30.04,SW,230,0.0,0.0,0,0.00,CLR,,0.00,WeatherDisplay:10.37,2013-12-01 10:36:00,
2013-12-01 04:41:00,31.1,0.0,30.04,SW,230,0.0,0.0,0,0.00,CLR,,0.00,WeatherDisplay:10.37,2013-12-01 10:41:00,
2013-12-01 04:46:00,30.9,0.0,30.04,SW,230,0.0,0.0,0,0.00,CLR,,0.00,WeatherDisplay:10.37,2013-12-01 10:46:00,
2013-12-01 04:51:00,30.5,0.0,30.04,SW,230,0.0,0.0,0,0.00,CLR,,0.00,WeatherDisplay:10.37,2013-12-01 10:51:00,
2013-12-01 04:56:00,30.4,0.0,30.04,SW,230,0.0,0.0,0,0.00,CLR,,0.00,WeatherDisplay:10.37,2013-12-01 10:56:00,
2013-12-01 05:01:00,30.2,0.0,30.04,SW,230,0.0,0.0,0,0.00,CLR,,0.00,WeatherDisplay:10.37,2013-12-01 11:01:00,
2013-12-01 05:06:00,30.1,0.0,30.04,SW,230,0.0,0.0,0,0.00,CLR,,0.00,WeatherDisplay:10.37,2013-12-01 11:06:00,
2013-12-01 05:11:00,30.0,0.0,30.04,SW,230,0.0,0.0,0,0.00,CLR,,0.00,WeatherDisplay:10.37,2013-12-01 11:11:00,
2013-12-01 05:16:00,30.1,0.0,30.04,SW,230,0.0,0.0,0,0.00,CLR,,0.00,WeatherDisplay:10.37,2013-12-01 11:16:00,
2013-12-01 05:21:00,30.1,0.0,30.04,SW,230,0.0,0.0,0,0.00,CLR,,0.00,WeatherDisplay:10.37,2013-12-01 11:21:00,
2013-12-01 05:26:00,29.9,0.0,30.04,SW,230,0.0,0.0,0,0.00,CLR,,0.00,WeatherDisplay:10.37,2013-12-01 11:26:00,
2013-12-01 05:31:00,29.8,0.0,30.04,SW,230,0.0,0.0,0,0.00,CLR,,0.00,WeatherDisplay:10.37,2013-12-01 11:31:00,
2013-12-01 05:36:00,29.7,0.0,30.04,SW,230,0.0,0.0,0,0.00,CLR,,0.00,WeatherDisplay:10.37,2013-12-01 11:36:00,
2013-12-01 05:41:00,29.8,0.0,30.04,SW,230,0.0,0.0,0,0.00,CLR,,0.00,WeatherDisplay:10.37,2013-12-01 11:41:00,
2013-12-01 05:46:00,29.8,0.0,30.04,SW,230,0.0,0.0,0,0.00,CLR,,0.00,WeatherDisplay:10.37,2013-12-01 11:46:00,
2013-12-01 05:51:00,29.4,0.0,30.03,SW,230,0.0,0.0,0,0.00,CLR,,0.00,WeatherDisplay:10.37,2013-12-01 11:51:00,
2013-12-01 05:56:00,29.3,0.0,30.04,SW,230,0.0,0.0,0,0.00,CLR,,0.00,WeatherDisplay:10.37,2013-12-01 11:56:00,
2013-12-01 06:01:00,28.9,0.0,30.03,SW,230,0.0,0.0,0,0.00,CLR,,0.00,WeatherDisplay:10.37,2013-12-01 12:01:00,
2013-12-01 06:06:00,28.7,0.0,30.04,SW,230,0.0,0.0,0,0.00,CLR,,0.00,WeatherDisplay:10.37,2013-12-01 12:06:00,
2013-12-01 06:11:00,28.7,0.0,30.04,SW,230,0.0,0.0,0,0.00,CLR,,0.00,WeatherDisplay:10.37,2013-12-01 12:11:00,
2013-12-01 06:16:00,28.7,0.0,30.04,SW,230,0.0,0.0,0,0.00,CLR,,0.00,WeatherDisplay:10.37,2013-12-01 12:16:00,
2013-12-01 06:21:00,28.9,0.0,30.04,SW,230,0.0,0.0,0,0.00,CLR,,0.00,WeatherDisplay:10.37,2013-12-01 12:21:00,
2013-12-01 06:26:00,29.2,0.0,30.04,SW,230,0.0,0.0,0,0.00,CLR,,0.00,WeatherDisplay:10.37,2013-12-01 12:26:00,
2013-12-01 06:31:00,29.4,0.0,30.04,SW,230,2.3,0.0,0,0.00,CLR,,0.00,WeatherDisplay:10.37,2013-12-01 12:31:00,
2013-12-01 06:36:00,29.4,0.0,30.04,SW,230,0.0,0.0,0,0.00,CLR,,0.00,WeatherDisplay:10.37,2013-12-01 12:36:00,
2013-12-01 06:41:00,29.4,0.0,30.04,SW,230,0.0,0.0,0,0.00,CLR,,0.00,WeatherDisplay:10.37,2013-12-01 12:41:00,
2013-12-01 06:46:00,29.5,0.0,30.04,SW,230,0.0,0.0,0,0.00,CLR,,0.00,WeatherDisplay:10.37,2013-12-01 12:46:00,
2013-12-01 06:51:00,28.9,0.0,30.04,SW,230,0.0,0.0,0,0.00,CLR,,0.00,WeatherDisplay:10.37,2013-12-01 12:51:00,
2013-12-01 06:56:00,28.4,0.0,30.04,SW,230,0.0,0.0,0,0.00,CLR,,0.00,WeatherDisplay:10.37,2013-12-01 12:56:00,
2013-12-01 07:01:00,28.2,0.0,30.04,SW,230,0.0,0.0,0,0.00,CLR,,0.00,WeatherDisplay:10.37,2013-12-01 13:01:00,
2013-12-01 07:06:00,28.2,0.0,30.04,SW,230,0.0,0.0,0,0.00,CLR,,0.00,WeatherDisplay:10.37,2013-12-01 13:06:00,
2013-12-01 07:11:00,28.2,0.0,30.04,SW,230,0.0,0.0,0,0.00,CLR,,0.00,WeatherDisplay:10.37,2013-12-01 13:11:00,
2013-12-01 07:16:00,28.2,0.0,30.04,SW,230,0.0,0.0,0,0.00,CLR,,0.00,WeatherDisplay:10.37,2013-12-01 13:16:00,
2013-12-01 07:21:00,28.3,0.0,30.04,SW,230,0.0,0.0,0,0.00,CLR,,0.00,WeatherDisplay:10.37,2013-12-01 13:21:00,
2013-12-01 07:26:00,28.4,0.0,30.04,SW,230,0.0,0.0,0,0.00,CLR,,0.00,WeatherDisplay:10.37,2013-12-01 13:26:00,
2013-12-01 07:31:00,28.7,0.0,30.04,SW,230,0.0,0.0,0,0.00,CLR,,0.00,WeatherDisplay:10.37,2013-12-01 13:31:00,
2013-12-01 07:36:00,28.9,0.0,30.04,SW,230,0.0,0.0,0,0.00,CLR,,0.00,WeatherDisplay:10.37,2013-12-01 13:36:00,
2013-12-01 07:41:00,29.1,0.0,30.04,SW,230,0.0,0.0,0,0.00,CLR,,0.00,WeatherDisplay:10.37,2013-12-01 13:41:00,
2013-12-01 07:46:00,29.5,0.0,30.05,SW,230,0.0,0.0,0,0.00,CLR,,0.00,WeatherDisplay:10.37,2013-12-01 13:46:00,
2013-12-01 07:51:00,30.5,0.0,30.05,SW,230,0.0,0.0,0,0.00,CLR,,0.00,WeatherDisplay:10.37,2013-12-01 13:51:00,
2013-12-01 07:56:00,31.6,0.0,30.05,SW,230,0.0,0.0,0,0.00,CLR,,0.00,WeatherDisplay:10.37,2013-12-01 13:56:00,
2013-12-01 08:01:00,32.4,0.0,30.05,SW,230,0.0,0.0,0,0.00,CLR,,0.00,WeatherDisplay:10.37,2013-12-01 14:01:00,
2013-12-01 08:06:00,33.3,0.0,30.06,SW,230,0.0,0.0,0,0.00,CLR,,0.00,WeatherDisplay:10.37,2013-12-01 14:06:00,
2013-12-01 08:11:00,34.7,0.0,30.06,SW,230,0.0,0.0,0,0.00,CLR,,0.00,WeatherDisplay:10.37,2013-12-01 14:11:00,
2013-12-01 08:16:00,36.3,0.0,30.06,SW,230,0.0,0.0,0,0.00,CLR,,0.00,WeatherDisplay:10.37,2013-12-01 14:16:00,
2013-12-01 08:21:00,37.8,0.0,30.06,SW,230,0.0,0.0,0,0.00,CLR,,0.00,WeatherDisplay:10.37,2013-12-01 14:21:00,
2013-12-01 08:26:00,38.2,0.0,30.06,SW,230,0.0,0.0,0,0.00,CLR,,0.00,WeatherDisplay:10.37,2013-12-01 14:26:00,
2013-12-01 08:31:00,38.2,0.0,30.06,SW,230,0.0,0.0,0,0.00,CLR,,0.00,WeatherDisplay:10.37,2013-12-01 14:31:00,
2013-12-01 08:36:00,39.8,0.0,30.06,SW,230,0.0,0.0,0,0.00,CLR,,0.00,WeatherDisplay:10.37,2013-12-01 14:36:00,
2013-12-01 08:41:00,39.3,0.0,30.06,SW,230,0.0,0.0,0,0.00,CLR,,0.00,WeatherDisplay:10.37,2013-12-01 14:41:00,
2013-12-01 08:46:00,40.6,0.0,30.06,SW,230,0.0,0.0,0,0.00,CLR,,0.00,WeatherDisplay:10.37,2013-12-01 14:46:00,
2013-12-01 08:51:00,42.2,0.0,30.06,SW,230,0.0,0.0,0,0.00,CLR,,0.00,WeatherDisplay:10.37,2013-12-01 14:51:00,
2013-12-01 08:56:00,42.4,0.0,30.06,SW,230,0.0,0.0,0,0.00,CLR,,0.00,WeatherDisplay:10.37,2013-12-01 14:56:00,
2013-12-01 09:01:00,43.2,0.0,30.06,SW,230,0.0,0.0,0,0.00,CLR,,0.00,WeatherDisplay:10.37,2013-12-01 15:01:00,
2013-12-01 09:06:00,44.2,0.0,30.06,SW,230,0.0,0.0,0,0.00,CLR,,0.00,WeatherDisplay:10.37,2013-12-01 15:06:00,
2013-12-01 09:11:00,43.7,0.0,30.06,SW,230,0.0,0.0,0,0.00,CLR,,0.00,WeatherDisplay:10.37,2013-12-01 15:11:00,
2013-12-01 09:16:00,45.9,0.0,30.06,SW,230,0.0,0.0,0,0.00,CLR,,0.00,WeatherDisplay:10.37,2013-12-01 15:16:00,
2013-12-01 09:21:00,46.6,0.0,30.06,SW,230,0.0,0.0,0,0.00,CLR,,0.00,WeatherDisplay:10.37,2013-12-01 15:21:00,
2013-12-01 09:26:00,46.5,0.0,30.06,SW,223,0.0,2.5,0,0.00,CLR,,0.00,WeatherDisplay:10.37,2013-12-01 15:26:00,
2013-12-01 09:31:00,46.3,0.0,30.06,SW,223,0.0,0.0,0,0.00,CLR,,0.00,WeatherDisplay:10.37,2013-12-01 15:31:00,
2013-12-01 09:36:00,46.2,0.0,30.06,SW,223,0.0,0.0,0,0.00,CLR,,0.00,WeatherDisplay:10.37,2013-12-01 15:36:00,
2013-12-01 09:41:00,44.8,0.0,30.06,SW,223,0.0,0.0,0,0.00,CLR,,0.00,WeatherDisplay:10.37,2013-12-01 15:41:00,
2013-12-01 09:46:00,44.8,0.0,30.06,SW,223,0.0,0.0,0,0.00,CLR,,0.00,WeatherDisplay:10.37,2013-12-01 15:46:00,
2013-12-01 09:51:00,45.9,0.0,30.06,SW,223,0.0,0.0,0,0.00,CLR,,0.00,WeatherDisplay:10.37,2013-12-01 15:51:00,
2013-12-01 09:56:00,46.6,0.0,30.06,SW,223,0.0,0.0,0,0.00,CLR,,0.00,WeatherDisplay:10.37,2013-12-01 15:56:00,
2013-12-01 10:01:00,47.5,0.0,30.06,SW,223,0.0,0.0,0,0.00,CLR,,0.00,WeatherDisplay:10.37,2013-12-01 16:01:00,
2013-12-01 10:06:00,47.3,0.0,30.06,SW,223,0.0,0.0,0,0.00,CLR,,0.00,WeatherDisplay:10.37,2013-12-01 16:06:00,
2013-12-01 10:11:00,47.9,0.0,30.06,SW,223,0.0,0.0,0,0.00,CLR,,0.00,WeatherDisplay:10.37,2013-12-01 16:11:00,
2013-12-01 10:16:00,47.9,0.0,30.06,WSW,244,0.0,1.1,0,0.00,CLR,,0.00,WeatherDisplay:10.37,2013-12-01 16:16:00,
2013-12-01 10:21:00,48.5,0.0,30.06,NW,311,2.3,2.3,0,0.00,CLR,,0.00,WeatherDisplay:10.37,2013-12-01 16:21:00,
2013-12-01 10:26:00,49.0,0.0,30.05,NW,311,0.0,0.0,0,0.00,CLR,,0.00,WeatherDisplay:10.37,2013-12-01 16:26:00,
2013-12-01 10:31:00,48.4,0.0,30.05,NW,311,0.0,0.0,0,0.00,CLR,,0.00,WeatherDisplay:10.37,2013-12-01 16:31:00,
2013-12-01 10:36:00,47.9,0.0,30.05,NW,311,0.0,0.0,0,0.00,CLR,,0.00,WeatherDisplay:10.37,2013-12-01 16:36:00,
2013-12-01 10:41:00,47.9,0.0,30.04,NW,311,0.0,0.0,0,0.00,CLR,,0.00,WeatherDisplay:10.37,2013-12-01 16:41:00,
2013-12-01 10:46:00,48.5,0.0,30.04,NW,311,0.0,0.0,0,0.00,CLR,,0.00,WeatherDisplay:10.37,2013-12-01 16:46:00,
2013-12-01 10:51:00,48.4,0.0,30.04,West,281,5.8,5.8,0,0.00,CLR,,0.00,WeatherDisplay:10.37,2013-12-01 16:51:00,
2013-12-01 10:56:00,47.9,0.0,30.04,NW,326,6.9,6.9,0,0.00,CLR,,0.00,WeatherDisplay:10.37,2013-12-01 16:56:00,
2013-12-01 11:01:00,48.0,0.0,30.04,WSW,239,3.5,3.5,0,0.00,CLR,,0.00,WeatherDisplay:10.37,2013-12-01 17:01:00,
2013-12-01 11:06:00,49.5,0.0,30.04,SW,227,2.7,2.7,0,0.00,CLR,,0.00,WeatherDisplay:10.37,2013-12-01 17:06:00,
2013-12-01 11:11:00,49.3,0.0,30.03,NE,42,6.9,6.9,0,0.00,CLR,,0.00,WeatherDisplay:10.37,2013-12-01 17:11:00,
2013-12-01 11:16:00,49.9,0.0,30.03,West,264,0.0,0.0,0,0.00,CLR,,0.00,WeatherDisplay:10.37,2013-12-01 17:16:00,
2013-12-01 11:21:00,49.6,0.0,30.03,North,4,5.8,5.8,0,0.00,CLR,,0.00,WeatherDisplay:10.37,2013-12-01 17:21:00,
2013-12-01 11:26:00,50.0,0.0,30.03,NW,325,0.0,0.0,0,0.00,CLR,,0.00,WeatherDisplay:10.37,2013-12-01 17:26:00,
2013-12-01 11:31:00,48.9,0.0,30.03,NW,325,0.0,0.0,0,0.00,CLR,,0.00,WeatherDisplay:10.37,2013-12-01 17:31:00,
2013-12-01 11:36:00,48.9,0.0,30.03,NW,325,0.0,0.0,0,0.00,CLR,,0.00,WeatherDisplay:10.37,2013-12-01 17:36:00,
2013-12-01 11:41:00,49.4,0.0,30.03,NW,325,0.0,0.0,0,0.00,CLR,,0.00,WeatherDisplay:10.37,2013-12-01 17:41:00,
2013-12-01 11:46:00,49.0,0.0,30.02,West,268,4.6,0.0,0,0.00,CLR,,0.00,WeatherDisplay:10.37,2013-12-01 17:46:00,
2013-12-01 11:51:00,49.5,0.0,30.02,WNW,282,4.6,4.6,0,0.00,CLR,,0.00,WeatherDisplay:10.37,2013-12-01 17:51:00,
2013-12-01 11:56:00,49.8,0.0,30.02,WNW,282,0.0,0.0,0,0.00,CLR,,0.00,WeatherDisplay:10.37,2013-12-01 17:56:00,
2013-12-01 12:01:00,49.0,0.0,30.01,NE,38,2.3,0.0,0,0.00,CLR,,0.00,WeatherDisplay:10.37,2013-12-01 18:01:00,
2013-12-01 12:06:00,49.1,0.0,30.01,WSW,246,0.0,1.0,0,0.00,CLR,,0.00,WeatherDisplay:10.37,2013-12-01 18:06:00,
2013-12-01 12:11:00,49.7,0.0,30.01,WSW,246,0.0,0.0,0,0.00,CLR,,0.00,WeatherDisplay:10.37,2013-12-01 18:11:00,
2013-12-01 12:16:00,49.9,0.0,30.00,WSW,246,0.0,0.0,0,0.00,CLR,,0.00,WeatherDisplay:10.37,2013-12-01 18:16:00,
2013-12-01 12:21:00,49.9,0.0,30.00,WSW,246,0.0,0.0,0,0.00,CLR,,0.00,WeatherDisplay:10.37,2013-12-01 18:21:00,
2013-12-01 12:26:00,50.4,0.0,30.00,WSW,246,0.0,0.0,0,0.00,CLR,,0.00,WeatherDisplay:10.37,2013-12-01 18:26:00,
2013-12-01 12:31:00,50.5,0.0,30.00,West,264,4.6,0.0,0,0.00,CLR,,0.00,WeatherDisplay:10.37,2013-12-01 18:31:00,
2013-12-01 12:36:00,50.7,0.0,30.00,WNW,284,0.0,0.0,0,0.00,CLR,,0.00,WeatherDisplay:10.37,2013-12-01 18:36:00,
2013-12-01 12:41:00,50.3,0.0,30.00,WNW,294,0.0,0.0,0,0.00,CLR,,0.00,WeatherDisplay:10.37,2013-12-01 18:41:00,
2013-12-01 12:46:00,49.6,0.0,29.99,NW,308,4.6,4.6,0,0.00,CLR,,0.00,WeatherDisplay:10.37,2013-12-01 18:46:00,
2013-12-01 12:51:00,49.4,0.0,29.99,NNW,332,8.1,8.1,0,0.00,CLR,,0.00,WeatherDisplay:10.37,2013-12-01 18:51:00,
2013-12-01 12:56:00,49.7,0.0,29.99,WNW,302,2.9,2.9,0,0.00,CLR,,0.00,WeatherDisplay:10.37,2013-12-01 18:56:00,
2013-12-01 13:01:00,49.8,0.0,29.99,West,281,0.0,0.0,0,0.00,CLR,,0.00,WeatherDisplay:10.37,2013-12-01 19:01:00,
2013-12-01 13:06:00,49.7,0.0,29.99,WNW,291,0.0,0.0,0,0.00,CLR,,0.00,WeatherDisplay:10.37,2013-12-01 19:06:00,
2013-12-01 13:11:00,50.6,0.0,29.99,NNE,14,5.9,5.9,0,0.00,CLR,,0.00,WeatherDisplay:10.37,2013-12-01 19:11:00,
2013-12-01 13:16:00,50.1,0.0,29.98,NNW,347,4.6,0.0,0,0.00,CLR,,0.00,WeatherDisplay:10.37,2013-12-01 19:16:00,
2013-12-01 13:21:00,49.7,0.0,29.98,NNW,347,0.0,0.0,0,0.00,CLR,,0.00,WeatherDisplay:10.37,2013-12-01 19:21:00,
2013-12-01 13:26:00,49.3,0.0,29.98,NNW,347,0.0,0.0,0,0.00,CLR,,0.00,WeatherDisplay:10.37,2013-12-01 19:26:00,
2013-12-01 13:31:00,49.5,0.0,29.97,NNW,347,0.0,0.0,0,0.00,CLR,,0.00,WeatherDisplay:10.37,2013-12-01 19:31:00,
2013-12-01 13:36:00,50.0,0.0,29.97,NNW,347,0.0,0.0,0,0.00,CLR,,0.00,WeatherDisplay:10.37,2013-12-01 19:36:00,
2013-12-01 13:38:00,50.0,0.0,29.97,NNW,347,0.0,0.0,0,0.00,CLR,,0.00,WeatherDisplay:10.37,2013-12-01 19:38:00,
2013-12-01 13:43:00,50.3,0.0,29.97,NNW,347,0.0,0.0,0,0.00,CLR,,0.00,WeatherDisplay:10.37,2013-12-01 19:43:00,
2013-12-01 13:48:00,50.2,0.0,29.97,WNW,289,0.0,0.0,0,0.00,CLR,,0.00,WeatherDisplay:10.37,2013-12-01 19:48:00,
2013-12-01 13:53:00,50.3,0.0,29.97,WNW,289,0.0,0.0,0,0.00,CLR,,0.00,WeatherDisplay:10.37,2013-12-01 19:53:00,
2013-12-01 13:58:00,50.1,0.0,29.97,NNW,346,0.0,0.0,0,0.00,CLR,,0.00,WeatherDisplay:10.37,2013-12-01 19:58:00,
2013-12-01 14:03:00,50.1,0.0,29.97,NNW,346,0.0,0.0,0,0.00,CLR,,0.00,WeatherDisplay:10.37,2013-12-01 20:03:00,
2013-12-01 14:08:00,50.1,0.0,29.97,NNW,346,0.0,0.0,0,0.00,CLR,,0.00,WeatherDisplay:10.37,2013-12-01 20:08:00,
2013-12-01 14:13:00,49.7,0.0,29.97,NNW,346,0.0,0.0,0,0.00,CLR,,0.00,WeatherDisplay:10.37,2013-12-01 20:13:00,
2013-12-01 14:18:00,49.4,0.0,29.97,NW,309,0.0,0.0,0,0.00,CLR,,0.00,WeatherDisplay:10.37,2013-12-01 20:18:00,
2013-12-01 14:23:00,49.2,0.0,29.97,NW,309,0.0,0.0,0,0.00,CLR,,0.00,WeatherDisplay:10.37,2013-12-01 20:23:00,
2013-12-01 14:28:00,49.2,0.0,29.97,North,360,5.8,5.8,0,0.00,CLR,,0.00,WeatherDisplay:10.37,2013-12-01 20:28:00,
2013-12-01 14:33:00,49.3,0.0,29.96,North,360,0.0,0.0,0,0.00,CLR,,0.00,WeatherDisplay:10.37,2013-12-01 20:33:00,
2013-12-01 14:38:00,49.0,0.0,29.97,WNW,296,4.6,4.6,0,0.00,CLR,,0.00,WeatherDisplay:10.37,2013-12-01 20:38:00,
2013-12-01 14:43:00,48.7,0.0,29.97,North,359,0.0,0.0,0,0.00,CLR,,0.00,WeatherDisplay:10.37,2013-12-01 20:43:00,
2013-12-01 14:48:00,48.5,0.0,29.96,North,359,0.0,0.0,0,0.00,CLR,,0.00,WeatherDisplay:10.37,2013-12-01 20:48:00,
2013-12-01 14:53:00,48.6,0.0,29.96,WNW,299,4.6,4.6,0,0.00,CLR,,0.00,WeatherDisplay:10.37,2013-12-01 20:53:00,
2013-12-01 14:58:00,48.4,0.0,29.97,NW,312,0.0,0.0,0,0.00,CLR,,0.00,WeatherDisplay:10.37,2013-12-01 20:58:00,
2013-12-01 15:03:00,48.3,0.0,29.96,NW,312,0.0,0.0,0,0.00,CLR,,0.00,WeatherDisplay:10.37,2013-12-01 21:03:00,
2013-12-01 15:08:00,48.2,0.0,29.97,NW,312,0.0,0.0,0,0.00,CLR,,0.00,WeatherDisplay:10.37,2013-12-01 21:08:00,
2013-12-01 15:13:00,48.0,0.0,29.97,NW,312,0.0,0.0,0,0.00,CLR,,0.00,WeatherDisplay:10.37,2013-12-01 21:13:00,
2013-12-01 15:18:00,47.8,0.0,29.96,NW,312,0.0,0.0,0,0.00,CLR,,0.00,WeatherDisplay:10.37,2013-12-01 21:18:00,
2013-12-01 15:23:00,47.9,0.0,29.96,NW,312,0.0,0.0,0,0.00,CLR,,0.00,WeatherDisplay:10.37,2013-12-01 21:23:00,
2013-12-01 15:28:00,47.5,0.0,29.96,NNW,337,0.0,0.0,0,0.00,CLR,,0.00,WeatherDisplay:10.37,2013-12-01 21:28:00,
2013-12-01 15:33:00,47.3,0.0,29.96,NNW,337,0.0,0.0,0,0.00,CLR,,0.00,WeatherDisplay:10.37,2013-12-01 21:33:00,
2013-12-01 15:38:00,47.2,0.0,29.96,NNW,337,0.0,0.0,0,0.00,CLR,,0.00,WeatherDisplay:10.37,2013-12-01 21:38:00,
2013-12-01 15:43:00,46.9,0.0,29.96,NNW,344,6.9,6.9,0,0.00,CLR,,0.00,WeatherDisplay:10.37,2013-12-01 21:43:00,
2013-12-01 15:48:00,46.8,0.0,29.96,North,4,0.0,0.0,0,0.00,CLR,,0.00,WeatherDisplay:10.37,2013-12-01 21:48:00,
2013-12-01 15:53:00,46.6,0.0,29.96,North,6,0.0,0.0,0,0.00,CLR,,0.00,WeatherDisplay:10.37,2013-12-01 21:53:00,
2013-12-01 15:58:00,46.3,0.0,29.96,North,6,0.0,0.0,0,0.00,CLR,,0.00,WeatherDisplay:10.37,2013-12-01 21:58:00,
2013-12-01 16:03:00,45.9,0.0,29.96,NW,312,5.8,5.8,0,0.00,CLR,,0.00,WeatherDisplay:10.37,2013-12-01 22:03:00,
2013-12-01 16:08:00,45.6,0.0,29.96,North,360,0.0,0.0,0,0.00,CLR,,0.00,WeatherDisplay:10.37,2013-12-01 22:08:00,
2013-12-01 16:13:00,45.4,0.0,29.96,North,360,0.0,0.0,0,0.00,CLR,,0.00,WeatherDisplay:10.37,2013-12-01 22:13:00,
2013-12-01 16:18:00,45.1,0.0,29.96,North,360,0.0,0.0,0,0.00,CLR,,0.00,WeatherDisplay:10.37,2013-12-01 22:18:00,
2013-12-01 16:23:00,44.6,0.0,29.96,North,360,0.0,0.0,0,0.00,CLR,,0.00,WeatherDisplay:10.37,2013-12-01 22:23:00,
2013-12-01 16:28:00,44.3,0.0,29.96,North,360,0.0,0.0,0,0.00,CLR,,0.00,WeatherDisplay:10.37,2013-12-01 22:28:00,
2013-12-01 16:33:00,43.8,0.0,29.96,North,360,0.0,0.0,0,0.00,CLR,,0.00,WeatherDisplay:10.37,2013-12-01 22:33:00,
2013-12-01 16:38:00,43.3,0.0,29.96,North,360,0.0,0.0,0,0.00,CLR,,0.00,WeatherDisplay:10.37,2013-12-01 22:38:00,
2013-12-01 16:43:00,42.8,0.0,29.96,North,360,0.0,0.0,0,0.00,CLR,,0.00,WeatherDisplay:10.37,2013-12-01 22:43:00,
2013-12-01 16:48:00,42.4,0.0,29.97,North,360,0.0,0.0,0,0.00,CLR,,0.00,WeatherDisplay:10.37,2013-12-01 22:48:00,
2013-12-01 16:53:00,42.1,0.0,29.97,North,360,0.0,0.0,0,0.00,CLR,,0.00,WeatherDisplay:10.37,2013-12-01 22:53:00,
2013-12-01 16:58:00,41.8,0.0,29.97,North,360,0.0,0.0,0,0.00,CLR,,0.00,WeatherDisplay:10.37,2013-12-01 22:58:00,
2013-12-01 17:03:00,41.7,0.0,29.97,North,360,0.0,0.0,0,0.00,CLR,,0.00,WeatherDisplay:10.37,2013-12-01 23:03:00,
2013-12-01 17:08:00,41.4,0.0,29.97,North,360,0.0,0.0,0,0.00,CLR,,0.00,WeatherDisplay:10.37,2013-12-01 23:08:00,
2013-12-01 17:13:00,41.1,0.0,29.97,North,360,0.0,0.0,0,0.00,CLR,,0.00,WeatherDisplay:10.37,2013-12-01 23:13:00,
2013-12-01 17:18:00,40.9,0.0,29.97,North,360,0.0,0.0,0,0.00,CLR,,0.00,WeatherDisplay:10.37,2013-12-01 23:18:00,
2013-12-01 17:23:00,40.6,0.0,29.97,North,360,0.0,0.0,0,0.00,CLR,,0.00,WeatherDisplay:10.37,2013-12-01 23:23:00,
2013-12-01 17:28:00,40.2,0.0,29.97,North,360,0.0,0.0,0,0.00,CLR,,0.00,WeatherDisplay:10.37,2013-12-01 23:28:00,
2013-12-01 17:33:00,39.9,0.0,29.98,North,360,0.0,0.0,0,0.00,CLR,,0.00,WeatherDisplay:10.37,2013-12-01 23:33:00,
2013-12-01 17:39:00,39.3,0.0,29.98,North,360,0.0,0.0,0,0.00,CLR,,0.00,WeatherDisplay:10.37,2013-12-01 23:39:00,
2013-12-01 17:44:00,38.9,0.0,29.98,North,360,0.0,0.0,0,0.00,CLR,,0.00,WeatherDisplay:10.37,2013-12-01 23:44:00,
2013-12-01 17:49:00,38.6,0.0,29.98,North,360,0.0,0.0,0,0.00,CLR,,0.00,WeatherDisplay:10.37,2013-12-01 23:49:00,
2013-12-01 17:54:00,38.5,0.0,29.97,North,360,0.0,0.0,0,0.00,CLR,,0.00,WeatherDisplay:10.37,2013-12-01 23:54:00,
2013-12-01 17:59:00,38.5,0.0,29.97,North,360,0.0,0.0,0,0.00,CLR,,0.00,WeatherDisplay:10.37,2013-12-01 23:59:00,
2013-12-01 18:04:00,38.4,0.0,29.97,North,360,0.0,0.0,0,0.00,CLR,,0.00,WeatherDisplay:10.37,2013-12-02 00:04:00,
2013-12-01 18:09:00,38.4,0.0,29.97,North,360,0.0,0.0,0,0.00,CLR,,0.00,WeatherDisplay:10.37,2013-12-02 00:09:00,
2013-12-01 18:14:00,38.3,0.0,29.97,North,360,0.0,0.0,0,0.00,CLR,,0.00,WeatherDisplay:10.37,2013-12-02 00:14:00,
2013-12-01 18:19:00,38.5,0.0,29.97,North,360,0.0,0.0,0,0.00,CLR,,0.00,WeatherDisplay:10.37,2013-12-02 00:19:00,
2013-12-01 18:24:00,38.4,0.0,29.97,North,360,0.0,0.0,0,0.00,CLR,,0.00,WeatherDisplay:10.37,2013-12-02 00:24:00,
2013-12-01 18:29:00,38.3,0.0,29.97,North,360,0.0,0.0,0,0.00,CLR,,0.00,WeatherDisplay:10.37,2013-12-02 00:29:00,
2013-12-01 18:34:00,38.3,0.0,29.97,North,360,0.0,0.0,0,0.00,CLR,,0.00,WeatherDisplay:10.37,2013-12-02 00:34:00,
2013-12-01 18:39:00,38.1,0.0,29.97,North,360,0.0,0.0,0,0.00,CLR,,0.00,WeatherDisplay:10.37,2013-12-02 00:39:00,
2013-12-01 18:44:00,38.1,0.0,29.97,North,360,0.0,0.0,0,0.00,CLR,,0.00,WeatherDisplay:10.37,2013-12-02 00:44:00,
2013-12-01 18:49:00,38.0,0.0,29.97,North,360,0.0,0.0,0,0.00,CLR,,0.00,WeatherDisplay:10.37,2013-12-02 00:49:00,
2013-12-01 18:54:00,38.1,0.0,29.97,North,360,0.0,0.0,0,0.00,CLR,,0.00,WeatherDisplay:10.37,2013-12-02 00:54:00,
2013-12-01 18:59:00,38.1,0.0,29.97,North,360,0.0,0.0,0,0.00,CLR,,0.00,WeatherDisplay:10.37,2013-12-02 00:59:00,
2013-12-01 19:04:00,38.3,0.0,29.97,North,360,0.0,0.0,0,0.00,CLR,,0.00,WeatherDisplay:10.37,2013-12-02 01:04:00,
2013-12-01 19:09:00,38.4,0.0,29.97,North,360,0.0,0.0,0,0.00,CLR,,0.00,WeatherDisplay:10.37,2013-12-02 01:09:00,
2013-12-01 19:14:00,38.4,0.0,29.97,North,360,0.0,0.0,0,0.00,CLR,,0.00,WeatherDisplay:10.37,2013-12-02 01:14:00,
2013-12-01 19:19:00,38.2,0.0,29.97,North,360,0.0,0.0,0,0.00,CLR,,0.00,WeatherDisplay:10.37,2013-12-02 01:19:00,
2013-12-01 19:24:00,37.9,0.0,29.97,North,360,0.0,0.0,0,0.00,CLR,,0.00,WeatherDisplay:10.37,2013-12-02 01:24:00,
2013-12-01 19:29:00,37.9,0.0,29.97,North,360,0.0,0.0,0,0.00,CLR,,0.00,WeatherDisplay:10.37,2013-12-02 01:29:00,
2013-12-01 19:34:00,37.8,0.0,29.96,North,360,0.0,0.0,0,0.00,CLR,,0.00,WeatherDisplay:10.37,2013-12-02 01:34:00,
2013-12-01 19:39:00,37.7,0.0,29.96,North,360,0.0,0.0,0,0.00,CLR,,0.00,WeatherDisplay:10.37,2013-12-02 01:39:00,
2013-12-01 19:44:00,37.8,0.0,29.96,North,360,0.0,0.0,0,0.00,CLR,,0.00,WeatherDisplay:10.37,2013-12-02 01:44:00,
2013-12-01 19:49:00,37.6,0.0,29.96,North,360,0.0,0.0,0,0.00,CLR,,0.00,WeatherDisplay:10.37,2013-12-02 01:49:00,
2013-12-01 19:54:00,37.7,0.0,29.96,North,360,0.0,0.0,0,0.00,CLR,,0.00,WeatherDisplay:10.37,2013-12-02 01:54:00,
2013-12-01 19:59:00,37.6,0.0,29.96,North,360,0.0,0.0,0,0.00,CLR,,0.00,WeatherDisplay:10.37,2013-12-02 01:59:00,
2013-12-01 20:04:00,37.4,0.0,29.97,NNE,13,3.5,0.0,0,0.00,CLR,,0.00,WeatherDisplay:10.37,2013-12-02 02:04:00,
2013-12-01 20:09:00,37.4,0.0,29.97,NNE,13,0.0,0.0,0,0.00,CLR,,0.00,WeatherDisplay:10.37,2013-12-02 02:09:00,
2013-12-01 20:14:00,37.4,0.0,29.97,NNE,13,0.0,0.0,0,0.00,CLR,,0.00,WeatherDisplay:10.37,2013-12-02 02:14:00,
2013-12-01 20:19:00,37.0,0.0,29.96,NNE,13,0.0,0.0,0,0.00,CLR,,0.00,WeatherDisplay:10.37,2013-12-02 02:19:00,
2013-12-01 20:24:00,37.1,0.0,29.96,NNE,13,0.0,0.0,0,0.00,CLR,,0.00,WeatherDisplay:10.37,2013-12-02 02:24:00,
2013-12-01 20:29:00,36.8,0.0,29.96,NNE,13,0.0,0.0,0,0.00,CLR,,0.00,WeatherDisplay:10.37,2013-12-02 02:29:00,
2013-12-01 20:34:00,37.0,0.0,29.96,NNE,13,0.0,0.0,0,0.00,CLR,,0.00,WeatherDisplay:10.37,2013-12-02 02:34:00,
2013-12-01 20:39:00,36.5,0.0,29.96,NNE,13,0.0,0.0,0,0.00,CLR,,0.00,WeatherDisplay:10.37,2013-12-02 02:39:00,
2013-12-01 20:44:00,36.8,0.0,29.96,NNE,13,0.0,0.0,0,0.00,CLR,,0.00,WeatherDisplay:10.37,2013-12-02 02:44:00,
2013-12-01 20:49:00,36.4,0.0,29.96,NNE,13,0.0,0.0,0,0.00,CLR,,0.00,WeatherDisplay:10.37,2013-12-02 02:49:00,
2013-12-01 20:54:00,36.3,0.0,29.96,NNE,13,0.0,0.0,0,0.00,CLR,,0.00,WeatherDisplay:10.37,2013-12-02 02:54:00,
2013-12-01 20:59:00,36.1,0.0,29.95,NNE,13,0.0,0.0,0,0.00,CLR,,0.00,WeatherDisplay:10.37,2013-12-02 02:59:00,
2013-12-01 21:04:00,36.0,0.0,29.95,NNE,13,0.0,0.0,0,0.00,CLR,,0.00,WeatherDisplay:10.37,2013-12-02 03:04:00,
2013-12-01 21:09:00,35.9,0.0,29.95,NNE,13,0.0,0.0,0,0.00,CLR,,0.00,WeatherDisplay:10.37,2013-12-02 03:09:00,
2013-12-01 21:14:00,35.8,0.0,29.95,NNE,13,0.0,0.0,0,0.00,CLR,,0.00,WeatherDisplay:10.37,2013-12-02 03:14:00,
2013-12-01 21:19:00,35.8,0.0,29.95,NNE,13,0.0,0.0,0,0.00,CLR,,0.00,WeatherDisplay:10.37,2013-12-02 03:19:00,
2013-12-01 21:24:00,35.5,0.0,29.95,NNE,13,0.0,0.0,0,0.00,CLR,,0.00,WeatherDisplay:10.37,2013-12-02 03:24:00,
2013-12-01 21:29:00,35.7,0.0,29.95,NNE,13,0.0,0.0,0,0.00,CLR,,0.00,WeatherDisplay:10.37,2013-12-02 03:29:00,
2013-12-01 21:34:00,35.5,0.0,29.95,NNE,13,0.0,0.0,0,0.00,CLR,,0.00,WeatherDisplay:10.37,2013-12-02 03:34:00,
2013-12-01 21:39:00,35.5,0.0,29.95,NNE,13,0.0,0.0,0,0.00,CLR,,0.00,WeatherDisplay:10.37,2013-12-02 03:39:00,
2013-12-01 21:44:00,35.4,0.0,29.94,NNE,13,0.0,0.0,0,0.00,CLR,,0.00,WeatherDisplay:10.37,2013-12-02 03:44:00,
2013-12-01 21:49:00,35.4,0.0,29.94,NNE,13,0.0,0.0,0,0.00,CLR,,0.00,WeatherDisplay:10.37,2013-12-02 03:49:00,
2013-12-01 21:54:00,35.2,0.0,29.94,NNE,13,0.0,0.0,0,0.00,CLR,,0.00,WeatherDisplay:10.37,2013-12-02 03:54:00,
2013-12-01 21:59:00,35.3,0.0,29.94,NNE,13,0.0,0.0,0,0.00,CLR,,0.00,WeatherDisplay:10.37,2013-12-02 03:59:00,
2013-12-01 22:04:00,35.1,0.0,29.94,NNE,13,0.0,0.0,0,0.00,CLR,,0.00,WeatherDisplay:10.37,2013-12-02 04:04:00,
2013-12-01 22:09:00,35.3,0.0,29.94,NNE,13,0.0,0.0,0,0.00,CLR,,0.00,WeatherDisplay:10.37,2013-12-02 04:09:00,
2013-12-01 22:14:00,35.0,0.0,29.94,NNE,13,0.0,0.0,0,0.00,CLR,,0.00,WeatherDisplay:10.37,2013-12-02 04:14:00,
2013-12-01 22:19:00,35.2,0.0,29.94,NNE,13,0.0,0.0,0,0.00,CLR,,0.00,WeatherDisplay:10.37,2013-12-02 04:19:00,
2013-12-01 22:24:00,35.2,0.0,29.94,NNE,13,0.0,0.0,0,0.00,CLR,,0.00,WeatherDisplay:10.37,2013-12-02 04:24:00,
2013-12-01 22:29:00,35.3,0.0,29.95,NNE,13,0.0,0.0,0,0.00,CLR,,0.00,WeatherDisplay:10.37,2013-12-02 04:29:00,
2013-12-01 22:35:00,35.2,0.0,29.95,NNE,13,0.0,0.0,0,0.00,CLR,,0.00,WeatherDisplay:10.37,2013-12-02 04:35:00,
2013-12-01 22:40:00,35.1,0.0,29.94,NNE,13,0.0,0.0,0,0.00,CLR,,0.00,WeatherDisplay:10.37,2013-12-02 04:40:00,
2013-12-01 22:45:00,35.1,0.0,29.94,NNE,13,0.0,0.0,0,0.00,CLR,,0.00,WeatherDisplay:10.37,2013-12-02 04:45:00,
2013-12-01 22:50:00,35.1,0.0,29.94,NNE,13,0.0,0.0,0,0.00,CLR,,0.00,WeatherDisplay:10.37,2013-12-02 04:50:00,
2013-12-01 22:55:00,35.2,0.0,29.94,NNE,13,0.0,0.0,0,0.00,CLR,,0.00,WeatherDisplay:10.37,2013-12-02 04:55:00,
2013-12-01 23:00:00,34.8,0.0,29.93,NNE,13,0.0,0.0,0,0.00,CLR,,0.00,WeatherDisplay:10.37,2013-12-02 05:00:00,
2013-12-01 23:01:00,35.1,0.0,29.93,NNE,13,0.0,0.0,0,0.00,CLR,,0.00,WeatherDisplay:10.37,2013-12-02 05:01:00,
2013-12-01 23:02:00,35.0,0.0,29.93,NNE,13,0.0,0.0,0,0.00,CLR,,0.00,WeatherDisplay:10.37,2013-12-02 05:02:00,
2013-12-01 23:07:00,35.1,0.0,29.94,NNE,13,0.0,0.0,0,0.00,CLR,,0.00,WeatherDisplay:10.37,2013-12-02 05:07:00,
2013-12-01 23:12:00,35.2,0.0,29.94,NNE,13,0.0,0.0,0,0.00,CLR,,0.00,WeatherDisplay:10.37,2013-12-02 05:12:00,
2013-12-01 23:17:00,35.2,0.0,29.94,NNE,13,0.0,0.0,0,0.00,CLR,,0.00,WeatherDisplay:10.37,2013-12-02 05:17:00,
2013-12-01 23:22:00,34.7,0.0,29.93,NNE,13,0.0,0.0,0,0.00,CLR,,0.00,WeatherDisplay:10.37,2013-12-02 05:22:00,
2013-12-01 23:27:00,35.0,0.0,29.93,NNE,13,0.0,0.0,0,0.00,CLR,,0.00,WeatherDisplay:10.37,2013-12-02 05:27:00,
2013-12-01 23:32:00,34.8,0.0,29.93,NNE,13,0.0,0.0,0,0.00,CLR,,0.00,WeatherDisplay:10.37,2013-12-02 05:32:00,
2013-12-01 23:37:00,35.1,0.0,29.94,NNE,13,0.0,0.0,0,0.00,CLR,,0.00,WeatherDisplay:10.37,2013-12-02 05:37:00,
2013-12-01 23:42:00,34.8,0.0,29.93,NNE,13,0.0,0.0,0,0.00,CLR,,0.00,WeatherDisplay:10.37,2013-12-02 05:42:00,
2013-12-01 23:47:00,35.0,0.0,29.93,NNE,13,0.0,0.0,0,0.00,CLR,,0.00,WeatherDisplay:10.37,2013-12-02 05:47:00,
2013-12-01 23:52:00,34.7,0.0,29.93,NNE,13,0.0,0.0,0,0.00,CLR,,0.00,WeatherDisplay:10.37,2013-12-02 05:52:00,
2013-12-01 23:57:00,34.8,0.0,29.93,NNE,13,0.0,0.0,0,0.00,CLR,,0.00,WeatherDisplay:10.37,2013-12-02 05:57:00,